createdAt,value
2023-05-09T00:04:01.450Z,75.47
2023-05-09T00:06:29.589Z,75.50
2023-05-09T00:08:58.372Z,75.51
2023-05-09T00:11:26.993Z,75.53
2023-05-09T00:13:55.131Z,75.53
2023-05-09T00:16:23.874Z,75.62
2023-05-09T00:18:52.240Z,75.63
2023-05-09T00:21:20.380Z,75.65
2023-05-09T00:23:48.616Z,75.61
2023-05-09T00:26:17.384Z,75.59
2023-05-09T00:28:46.430Z,75.59
2023-05-09T00:31:15.025Z,75.63
2023-05-09T00:33:43.520Z,75.64
2023-05-09T00:36:11.803Z,75.65
2023-05-09T00:38:39.960Z,75.80
2023-05-09T00:41:08.286Z,76.36
2023-05-09T00:43:36.481Z,76.61
2023-05-09T00:46:04.880Z,76.97
2023-05-09T00:48:33.436Z,77.13
2023-05-09T00:51:01.549Z,77.70
2023-05-09T00:53:29.787Z,78.00
2023-05-09T00:56:00.316Z,78.25
2023-05-09T00:58:29.307Z,78.50
2023-05-09T01:00:57.462Z,78.94
2023-05-09T01:03:25.896Z,79.07
2023-05-09T01:06:07.567Z,79.00
2023-05-09T01:08:51.505Z,79.15
2023-05-09T01:11:36.519Z,79.40
2023-05-09T01:14:25.993Z,79.52
2023-05-09T01:16:59.610Z,79.67
2023-05-09T01:19:52.556Z,79.67
2023-05-09T01:22:27.053Z,79.78
2023-05-09T01:25:20.434Z,79.78
2023-05-09T01:27:59.865Z,80.13
2023-05-09T01:30:30.993Z,80.24
2023-05-09T01:33:06.642Z,80.26
2023-05-09T01:35:38.054Z,80.41
2023-05-09T01:38:12.428Z,80.39
2023-05-09T01:40:42.826Z,80.50
2023-05-09T01:43:12.839Z,80.50
2023-05-09T01:45:43.614Z,80.25
2023-05-09T01:48:13.548Z,80.40
2023-05-09T01:50:44.719Z,80.53
2023-05-09T01:53:14.054Z,80.64
2023-05-09T01:55:43.691Z,80.52
2023-05-09T01:58:12.744Z,80.64
2023-05-09T02:00:42.486Z,80.69
2023-05-09T02:03:11.327Z,80.79
2023-05-09T02:05:40.485Z,80.87
2023-05-09T02:08:09.808Z,81.15
2023-05-09T02:10:38.338Z,81.30
2023-05-09T02:13:06.969Z,81.47
2023-05-09T02:15:35.161Z,81.51
2023-05-09T02:18:03.428Z,81.54
2023-05-09T02:20:32.152Z,81.61
2023-05-09T02:23:00.217Z,81.87
2023-05-09T02:25:29.151Z,81.86
2023-05-09T02:27:58.908Z,81.85
2023-05-09T02:30:31.363Z,81.84
2023-05-09T02:33:07.712Z,81.71
2023-05-09T02:35:36.980Z,81.60
2023-05-09T02:38:05.524Z,81.43
2023-05-09T02:40:34.826Z,81.30
2023-05-09T02:43:03.425Z,81.07
2023-05-09T02:45:31.784Z,80.81
2023-05-09T02:48:00.662Z,80.75
2023-05-09T02:50:29.016Z,80.57
2023-05-09T02:52:57.092Z,80.31
2023-05-09T02:55:25.981Z,80.18
2023-05-09T02:58:01.916Z,80.04
2023-05-09T03:00:38.406Z,79.87
2023-05-09T03:03:06.713Z,79.61
2023-05-09T03:05:35.264Z,79.33
2023-05-09T03:08:03.672Z,79.19
2023-05-09T03:10:31.738Z,79.00
2023-05-09T03:12:59.969Z,78.88
2023-05-09T03:15:28.288Z,78.86
2023-05-09T03:17:56.373Z,78.77
2023-05-09T03:20:26.220Z,78.66
2023-05-09T03:22:54.570Z,78.53
2023-05-09T03:25:22.807Z,78.52
2023-05-09T03:27:51.520Z,78.42
2023-05-09T03:30:19.967Z,78.47
2023-05-09T03:32:48.439Z,78.48
2023-05-09T03:35:16.904Z,78.45
2023-05-09T03:37:45.193Z,78.36
2023-05-09T03:40:13.448Z,78.17
2023-05-09T03:42:41.502Z,78.10
2023-05-09T03:45:11.344Z,77.94
2023-05-09T03:47:39.618Z,77.77
2023-05-09T03:50:08.406Z,77.63
2023-05-09T03:52:36.514Z,77.43
2023-05-09T03:55:05.039Z,77.26
2023-05-09T03:57:34.737Z,77.12
2023-05-09T04:00:04.931Z,77.16
2023-05-09T04:02:34.489Z,77.08
2023-05-09T04:05:02.761Z,76.67
2023-05-09T04:07:31.073Z,76.61
2023-05-09T04:09:59.842Z,76.59
2023-05-09T04:12:27.988Z,76.54
2023-05-09T04:14:56.681Z,76.50
2023-05-09T04:17:24.839Z,76.35
2023-05-09T04:19:53.406Z,76.36
2023-05-09T04:22:21.661Z,76.18
2023-05-09T04:24:50.094Z,76.21
2023-05-09T04:27:18.271Z,75.93
2023-05-09T04:29:46.448Z,76.02
2023-05-09T04:32:14.593Z,76.04
2023-05-09T04:34:42.872Z,76.06
2023-05-09T04:37:11.523Z,76.06
2023-05-09T04:39:40.058Z,75.98
2023-05-09T04:42:07.986Z,75.99
2023-05-09T04:44:36.298Z,75.97
2023-05-09T04:47:04.431Z,76.04
2023-05-09T04:49:33.107Z,76.07
2023-05-09T04:52:01.673Z,76.03
2023-05-09T04:54:29.793Z,75.88
2023-05-09T04:57:09.843Z,75.75
2023-05-09T04:59:46.173Z,75.64
2023-05-09T05:02:14.259Z,75.50
2023-05-09T05:04:43.336Z,75.44
2023-05-09T05:07:11.557Z,75.30
2023-05-09T05:09:39.752Z,75.23
2023-05-09T05:12:09.570Z,75.18
2023-05-09T05:14:38.209Z,75.10
2023-05-09T05:17:06.346Z,75.12
2023-05-09T05:19:34.530Z,75.12
2023-05-09T05:22:02.700Z,75.07
2023-05-09T05:24:30.976Z,75.21
2023-05-09T05:26:59.024Z,75.21
2023-05-09T05:29:27.320Z,75.23
2023-05-09T05:31:55.672Z,75.28
2023-05-09T05:34:24.132Z,75.45
2023-05-09T05:36:52.152Z,75.75
2023-05-09T05:39:20.569Z,75.84
2023-05-09T05:41:48.591Z,75.56
2023-05-09T05:44:16.868Z,75.41
2023-05-09T05:46:44.926Z,75.31
2023-05-09T05:49:12.897Z,75.36
2023-05-09T05:51:41.389Z,75.57
2023-05-09T05:54:09.487Z,75.56
2023-05-09T05:56:37.659Z,75.58
2023-05-09T05:59:07.672Z,75.41
2023-05-09T06:01:35.808Z,75.45
2023-05-09T06:04:04.182Z,75.45
2023-05-09T06:06:32.801Z,75.50
2023-05-09T06:09:01.183Z,75.33
2023-05-09T06:11:29.239Z,74.94
2023-05-09T06:13:57.393Z,74.47
2023-05-09T06:16:25.558Z,74.19
2023-05-09T06:18:55.919Z,73.84
2023-05-09T06:21:24.447Z,73.59
2023-05-09T06:26:24.576Z,73.25
2023-05-09T06:28:53.147Z,72.96
2023-05-09T06:31:22.036Z,73.02
2023-05-09T06:33:51.777Z,72.98
2023-05-09T06:36:19.995Z,72.98
2023-05-09T06:38:48.308Z,73.05
2023-05-09T06:41:16.627Z,72.97
2023-05-09T06:43:44.753Z,72.95
2023-05-09T06:46:12.860Z,72.94
2023-05-09T06:48:41.144Z,72.67
2023-05-09T06:51:09.273Z,72.37
2023-05-09T06:53:38.133Z,72.15
2023-05-09T06:56:06.413Z,71.81
2023-05-09T06:58:34.586Z,71.08
2023-05-09T07:01:03.048Z,70.57
2023-05-09T07:03:33.079Z,70.20
2023-05-09T07:06:01.156Z,69.80
2023-05-09T07:08:29.745Z,69.19
2023-05-09T07:10:58.362Z,68.91
2023-05-09T07:13:27.458Z,68.85
2023-05-09T07:15:55.526Z,68.57
2023-05-09T07:18:23.985Z,68.30
2023-05-09T07:20:52.253Z,68.22
2023-05-09T07:23:20.466Z,67.90
2023-05-09T07:25:50.209Z,67.51
2023-05-09T07:28:18.299Z,67.26
2023-05-09T07:30:46.523Z,66.90
2023-05-09T07:33:14.619Z,66.41
2023-05-09T07:35:43.008Z,66.27
2023-05-09T07:38:11.129Z,65.99
2023-05-09T07:40:39.352Z,65.92
2023-05-09T07:43:07.748Z,65.76
2023-05-09T07:45:35.917Z,65.82
2023-05-09T07:48:04.905Z,65.46
2023-05-09T07:50:33.648Z,64.94
2023-05-09T07:53:01.744Z,64.86
2023-05-09T07:55:30.005Z,64.65
2023-05-09T07:57:58.026Z,64.55
2023-05-09T08:00:26.738Z,64.63
2023-05-09T08:02:55.498Z,64.46
2023-05-09T08:05:23.752Z,64.37
2023-05-09T08:07:51.819Z,63.94
2023-05-09T08:10:20.005Z,62.96
2023-05-09T08:12:48.099Z,62.64
2023-05-09T08:15:16.399Z,61.73
2023-05-09T08:17:45.361Z,61.62
2023-05-09T08:20:13.451Z,61.54
2023-05-09T08:22:41.651Z,61.95
2023-05-09T08:25:10.062Z,61.91
2023-05-09T08:27:38.905Z,61.86
2023-05-09T08:30:08.208Z,62.35
2023-05-09T08:32:37.081Z,62.65
2023-05-09T08:35:06.350Z,63.05
2023-05-09T08:37:35.492Z,62.81
2023-05-09T08:40:05.396Z,62.69
2023-05-09T08:42:36.371Z,62.82
2023-05-09T08:45:10.327Z,63.25
2023-05-09T08:47:39.199Z,62.98
2023-05-09T08:50:09.120Z,63.61
2023-05-09T08:52:38.005Z,63.51
2023-05-09T08:55:06.336Z,63.77
2023-05-09T08:57:34.894Z,63.58
2023-05-09T09:00:05.111Z,63.42
2023-05-09T09:02:35.563Z,63.35
2023-05-09T09:05:05.201Z,63.16
2023-05-09T09:07:36.738Z,63.62
2023-05-09T09:10:06.243Z,64.05
2023-05-09T09:12:34.825Z,64.46
2023-05-09T09:15:08.695Z,65.38
2023-05-09T09:17:42.439Z,65.36
2023-05-09T09:20:13.712Z,64.87
2023-05-09T09:22:44.108Z,64.23
2023-05-09T09:25:12.256Z,64.09
2023-05-09T09:27:40.462Z,63.07
2023-05-09T09:30:11.508Z,63.17
2023-05-09T09:32:40.285Z,63.44
2023-05-09T09:35:11.656Z,63.70
2023-05-09T09:37:40.705Z,63.46
2023-05-09T09:40:10.190Z,63.45
2023-05-09T09:42:47.423Z,63.36
2023-05-09T09:45:16.862Z,63.32
2023-05-09T09:47:46.992Z,63.39
2023-05-09T09:50:18.944Z,62.80
2023-05-09T09:52:50.961Z,62.54
2023-05-09T09:55:21.234Z,62.63
2023-05-09T09:57:49.286Z,63.20
2023-05-09T10:00:30.143Z,63.47
2023-05-09T10:02:59.827Z,63.90
2023-05-09T10:05:30.535Z,63.84
2023-05-09T10:08:04.442Z,63.22
2023-05-09T10:10:35.058Z,63.95
2023-05-09T10:13:07.766Z,64.72
2023-05-09T10:15:45.510Z,65.10
2023-05-09T10:18:27.440Z,64.76
2023-05-09T10:20:57.311Z,63.74
2023-05-09T10:23:25.780Z,64.50
2023-05-09T10:26:14.342Z,64.14
2023-05-09T10:28:46.017Z,63.81
2023-05-09T10:31:28.461Z,63.60
2023-05-09T10:34:01.367Z,63.83
2023-05-09T10:36:29.891Z,64.13
2023-05-09T10:38:58.542Z,64.37
2023-05-09T10:41:27.541Z,64.40
2023-05-09T10:43:59.142Z,63.92
2023-05-09T10:46:28.349Z,63.94
2023-05-09T10:48:57.538Z,64.51
2023-05-09T10:51:26.197Z,64.30
2023-05-09T10:53:54.860Z,64.56
2023-05-09T10:56:30.216Z,65.24
2023-05-09T10:59:02.022Z,65.42
2023-05-09T11:01:38.227Z,66.41
2023-05-09T11:04:14.664Z,67.44
2023-05-09T11:06:50.191Z,67.80
2023-05-09T11:09:38.065Z,67.71
2023-05-09T11:12:13.005Z,68.16
2023-05-09T11:14:46.887Z,68.47
2023-05-09T11:17:20.995Z,68.96
2023-05-09T11:19:49.182Z,69.28
2023-05-09T11:22:28.854Z,69.64
2023-05-09T11:25:14.240Z,69.60
2023-05-09T11:27:50.354Z,69.50
2023-05-09T11:30:20.821Z,69.47
2023-05-09T11:32:54.775Z,69.68
2023-05-09T11:35:24.342Z,69.57
2023-05-09T11:38:03.866Z,69.64
2023-05-09T11:40:36.961Z,69.55
2023-05-09T11:43:08.002Z,69.36
2023-05-09T11:45:36.095Z,68.86
2023-05-09T11:48:09.494Z,68.25
2023-05-09T11:50:37.716Z,67.34
2023-05-09T11:53:05.857Z,67.01
2023-05-09T11:55:38.123Z,67.09
2023-05-09T11:58:07.516Z,67.23
2023-05-09T12:00:35.619Z,66.96
2023-05-09T12:03:06.322Z,67.14
2023-05-09T12:05:35.695Z,67.23
2023-05-09T12:08:04.219Z,66.83
2023-05-09T12:10:38.588Z,66.74
2023-05-09T12:13:06.887Z,66.62
2023-05-09T12:15:39.053Z,66.71
2023-05-09T12:18:08.537Z,66.40
2023-05-09T12:20:48.656Z,65.66
2023-05-09T12:23:17.224Z,65.43
2023-05-09T12:26:03.237Z,65.42
2023-05-09T12:28:33.171Z,65.20
2023-05-09T12:31:01.904Z,65.13
2023-05-09T12:33:31.617Z,65.55
2023-05-09T12:36:02.661Z,65.89
2023-05-09T12:38:30.914Z,65.85
2023-05-09T12:41:30.963Z,65.59
2023-05-09T12:44:05.409Z,64.61
2023-05-09T12:46:35.646Z,63.82
2023-05-09T12:49:23.502Z,63.54
2023-05-09T12:51:52.170Z,63.14
2023-05-09T12:54:26.466Z,63.18
2023-05-09T12:56:56.271Z,62.35
2023-05-09T12:59:28.751Z,62.20
2023-05-09T13:01:59.158Z,61.63
2023-05-09T13:04:28.890Z,61.73
2023-05-09T13:06:58.773Z,60.29
2023-05-09T13:09:27.923Z,59.96
2023-05-09T13:11:56.154Z,59.53
2023-05-09T13:14:25.676Z,59.76
2023-05-09T13:16:54.742Z,59.37
2023-05-09T13:19:24.106Z,59.07
2023-05-09T13:21:52.708Z,59.64
2023-05-09T13:24:21.071Z,60.28
2023-05-09T13:26:49.854Z,59.58
2023-05-09T13:29:18.000Z,60.13
2023-05-09T13:31:46.648Z,60.41
2023-05-09T13:34:14.661Z,60.58
2023-05-09T13:36:42.885Z,60.98
2023-05-09T13:39:11.082Z,61.36
2023-05-09T13:41:39.276Z,61.69
2023-05-09T13:44:08.560Z,61.70
2023-05-09T13:46:37.348Z,62.27
2023-05-09T13:49:05.991Z,62.11
2023-05-09T13:51:34.728Z,62.14
2023-05-09T13:54:04.149Z,62.43
2023-05-09T13:56:32.296Z,62.77
2023-05-09T13:59:00.483Z,62.89
2023-05-09T14:01:29.258Z,62.77
2023-05-09T14:03:57.446Z,62.43
2023-05-09T14:06:25.696Z,62.27
2023-05-09T14:08:53.706Z,62.52
2023-05-09T14:11:21.810Z,63.36
2023-05-09T14:13:50.084Z,63.65
2023-05-09T14:16:18.937Z,63.20
2023-05-09T14:18:47.664Z,63.47
2023-05-09T14:21:16.305Z,63.94
2023-05-09T14:23:45.033Z,64.21
2023-05-09T14:26:13.215Z,64.89
2023-05-09T14:28:41.480Z,64.98
2023-05-09T14:31:10.859Z,65.36
2023-05-09T14:33:39.444Z,65.72
2023-05-09T14:36:07.669Z,65.52
2023-05-09T14:38:35.796Z,65.89
2023-05-09T14:41:04.456Z,66.01
2023-05-09T14:43:32.784Z,66.09
2023-05-09T14:46:00.820Z,66.47
2023-05-09T14:48:29.673Z,66.96
2023-05-09T14:50:58.714Z,67.27
2023-05-09T14:53:27.693Z,67.20
2023-05-09T14:55:56.419Z,66.53
2023-05-09T14:58:24.668Z,66.62
2023-05-09T15:00:53.563Z,66.45
2023-05-09T15:03:21.982Z,66.64
2023-05-09T15:05:50.744Z,66.81
2023-05-09T15:08:19.246Z,66.89
2023-05-09T15:10:47.585Z,67.31
2023-05-09T15:13:16.144Z,67.65
2023-05-09T15:15:44.367Z,67.86
2023-05-09T15:18:12.976Z,67.89
2023-05-09T15:20:41.670Z,67.98
2023-05-09T15:23:12.181Z,67.93
2023-05-09T15:25:44.029Z,67.78
2023-05-09T15:28:13.034Z,67.62
2023-05-09T15:30:41.815Z,67.82
2023-05-09T15:33:10.175Z,67.60
2023-05-09T15:35:38.956Z,67.46
2023-05-09T15:38:07.607Z,67.56
2023-05-09T15:40:35.694Z,67.64
2023-05-09T15:43:05.354Z,67.85
2023-05-09T15:45:34.704Z,67.87
2023-05-09T15:48:03.236Z,67.73
2023-05-09T15:50:33.928Z,67.63
2023-05-09T15:53:02.154Z,67.80
2023-05-09T15:55:33.551Z,68.01
2023-05-09T15:58:01.774Z,68.10
2023-05-09T16:00:30.550Z,68.20
2023-05-09T16:02:59.713Z,68.31
2023-05-09T16:05:28.151Z,68.29
2023-05-09T16:07:56.237Z,68.61
2023-05-09T16:10:24.972Z,68.73
2023-05-09T16:12:53.181Z,69.05
2023-05-09T16:15:21.750Z,69.10
2023-05-09T16:17:49.890Z,69.21
2023-05-09T16:20:18.065Z,69.28
2023-05-09T16:22:46.466Z,69.39
2023-05-09T16:25:15.062Z,69.24
2023-05-09T16:27:43.658Z,69.13
2023-05-09T16:30:13.437Z,69.53
2023-05-09T16:32:42.100Z,69.73
2023-05-09T16:35:11.012Z,69.86
2023-05-09T16:37:39.591Z,69.90
2023-05-09T16:40:08.739Z,69.97
2023-05-09T16:42:36.988Z,69.88
2023-05-09T16:45:07.336Z,69.88
2023-05-09T16:47:35.648Z,69.86
2023-05-09T16:50:04.077Z,69.85
2023-05-09T16:52:32.172Z,69.99
2023-05-09T16:55:00.238Z,70.06
2023-05-09T16:57:28.596Z,70.33
2023-05-09T16:59:56.649Z,70.29
2023-05-09T17:02:24.857Z,70.30
2023-05-09T17:04:54.135Z,70.45
2023-05-09T17:07:22.424Z,70.63
2023-05-09T17:09:50.599Z,70.75
2023-05-09T17:12:19.237Z,70.75
2023-05-09T17:14:48.398Z,70.83
2023-05-09T17:17:16.555Z,70.95
2023-05-09T17:19:44.761Z,71.09
2023-05-09T17:22:12.935Z,71.37
2023-05-09T17:24:41.218Z,71.57
2023-05-09T17:27:09.474Z,71.84
2023-05-09T17:29:37.555Z,72.25
2023-05-09T17:32:05.883Z,72.53
2023-05-09T17:34:34.328Z,72.66
2023-05-09T17:37:02.643Z,72.77
2023-05-09T17:39:31.888Z,72.96
2023-05-09T17:41:59.939Z,73.15
2023-05-09T17:44:28.656Z,73.26
2023-05-09T17:47:00.593Z,73.57
2023-05-09T17:49:29.294Z,73.62
2023-05-09T17:51:57.460Z,73.81
2023-05-09T17:54:26.597Z,74.00
2023-05-09T17:56:55.459Z,74.11
2023-05-09T17:59:23.926Z,74.26
2023-05-09T18:01:52.257Z,74.50
2023-05-09T18:04:21.229Z,74.72
2023-05-09T18:06:49.911Z,74.83
2023-05-09T18:09:18.026Z,75.05
2023-05-09T18:11:46.159Z,75.14
2023-05-09T18:14:14.625Z,75.22
2023-05-09T18:16:43.770Z,75.46
2023-05-09T18:19:11.904Z,75.68
2023-05-09T18:21:40.060Z,75.78
2023-05-09T18:24:08.355Z,75.88
2023-05-09T18:26:36.569Z,75.81
2023-05-09T18:29:04.727Z,75.85
2023-05-09T18:31:33.373Z,75.81
2023-05-09T18:34:01.601Z,75.73
2023-05-09T18:36:29.635Z,75.77
2023-05-09T18:38:58.275Z,75.86
2023-05-09T18:41:29.362Z,75.82
2023-05-09T18:43:58.147Z,76.07
2023-05-09T18:46:26.326Z,76.01
2023-05-09T18:48:54.513Z,75.92
2023-05-09T18:51:23.059Z,75.91
2023-05-09T18:53:51.520Z,75.88
2023-05-09T18:56:19.861Z,75.99
2023-05-09T18:58:49.208Z,75.97
2023-05-09T19:01:17.889Z,75.98
2023-05-09T19:03:46.160Z,76.03
2023-05-09T19:06:15.469Z,76.03
2023-05-09T19:08:43.796Z,76.11
2023-05-09T19:11:11.812Z,76.19
2023-05-09T19:13:40.536Z,76.35
2023-05-09T19:16:09.080Z,76.30
2023-05-09T19:18:37.283Z,76.35
2023-05-09T19:21:05.621Z,76.43
2023-05-09T19:23:34.379Z,76.53
2023-05-09T19:26:02.799Z,76.58
2023-05-09T19:28:31.018Z,76.59
2023-05-09T19:30:59.104Z,76.61
2023-05-09T19:33:27.264Z,76.60
2023-05-09T19:35:55.781Z,76.63
2023-05-09T19:38:24.424Z,76.73
2023-05-09T19:40:52.811Z,76.83
2023-05-09T19:43:20.975Z,76.85
2023-05-09T19:45:49.004Z,76.89
2023-05-09T19:48:17.820Z,77.00
2023-05-09T19:50:46.260Z,77.07
2023-05-09T19:53:14.332Z,77.15
2023-05-09T19:55:43.010Z,77.21
2023-05-09T19:58:11.647Z,77.10
2023-05-09T20:00:40.608Z,77.21
2023-05-09T20:03:09.418Z,77.30
2023-05-09T20:05:38.925Z,77.35
2023-05-09T20:08:07.332Z,77.39
2023-05-09T20:10:35.486Z,77.45
2023-05-09T20:13:03.606Z,77.56
2023-05-09T20:15:32.230Z,77.52
2023-05-09T20:18:00.312Z,77.58
2023-05-09T20:20:30.164Z,77.54
2023-05-09T20:22:58.301Z,77.50
2023-05-09T20:25:26.424Z,77.40
2023-05-09T20:27:54.756Z,77.44
2023-05-09T20:30:23.031Z,77.43
2023-05-09T20:32:51.232Z,77.40
2023-05-09T20:35:19.431Z,77.43
2023-05-09T20:37:47.673Z,77.42
2023-05-09T20:40:15.978Z,77.34
2023-05-09T20:42:44.459Z,77.32
2023-05-09T20:45:12.979Z,77.45
2023-05-09T20:47:41.082Z,77.36
2023-05-09T20:50:10.784Z,77.46
2023-05-09T20:52:38.879Z,77.55
2023-05-09T20:55:07.221Z,77.65
2023-05-09T20:57:36.037Z,77.81
2023-05-09T21:00:04.480Z,77.72
2023-05-09T21:02:32.630Z,77.70
2023-05-09T21:05:03.204Z,77.70
2023-05-09T21:07:31.287Z,77.68
2023-05-09T21:09:59.841Z,77.70
2023-05-09T21:12:28.378Z,77.77
2023-05-09T21:14:56.706Z,77.75
2023-05-09T21:17:24.787Z,77.80
2023-05-09T21:19:52.991Z,77.76
2023-05-09T21:22:21.253Z,77.84
2023-05-09T21:24:49.345Z,77.82
2023-05-09T21:27:17.554Z,77.86
2023-05-09T21:29:45.657Z,77.82
2023-05-09T21:32:13.974Z,77.86
2023-05-09T21:34:42.785Z,77.78
2023-05-09T21:37:10.890Z,77.86
2023-05-09T21:39:39.432Z,77.88
2023-05-09T21:42:08.057Z,77.98
2023-05-09T21:44:36.251Z,78.00
2023-05-09T21:47:05.040Z,77.89
2023-05-09T21:49:33.607Z,77.94
2023-05-09T21:52:01.737Z,77.96
2023-05-09T21:54:29.977Z,77.89
2023-05-09T21:56:58.183Z,77.80
2023-05-09T21:59:27.170Z,77.76
2023-05-09T22:01:55.212Z,77.59
2023-05-09T22:04:23.847Z,77.52
2023-05-09T22:06:51.900Z,77.36
2023-05-09T22:09:19.975Z,77.18
2023-05-09T22:11:48.150Z,77.10
2023-05-09T22:14:16.240Z,77.13
2023-05-09T22:16:44.350Z,77.18
2023-05-09T22:19:12.825Z,77.22
2023-05-09T22:21:40.948Z,77.14
2023-05-09T22:24:09.054Z,77.23
2023-05-09T22:26:37.433Z,77.32
2023-05-09T22:29:05.494Z,77.29
2023-05-09T22:31:33.523Z,77.34
2023-05-09T22:34:02.135Z,77.44
2023-05-09T22:36:30.208Z,77.41
2023-05-09T22:38:58.318Z,77.32
2023-05-09T22:41:26.399Z,77.30
2023-05-09T22:43:54.921Z,77.37
2023-05-09T22:46:23.081Z,77.43
2023-05-09T22:48:51.659Z,77.30
2023-05-09T22:51:19.821Z,77.39
2023-05-09T22:53:48.014Z,77.34
2023-05-09T22:56:16.296Z,77.26
2023-05-09T22:58:44.453Z,77.19
2023-05-09T23:01:12.477Z,77.12
2023-05-09T23:03:40.658Z,77.10
2023-05-09T23:06:08.753Z,77.04
2023-05-09T23:08:37.040Z,77.03
2023-05-09T23:11:05.269Z,76.99
2023-05-09T23:13:33.298Z,76.94
2023-05-09T23:16:01.402Z,76.92
2023-05-09T23:18:30.354Z,76.87
2023-05-09T23:20:58.488Z,76.84
2023-05-09T23:23:27.761Z,76.77
2023-05-09T23:25:56.018Z,76.72
2023-05-09T23:28:24.518Z,76.68
2023-05-09T23:30:55.765Z,76.69
2023-05-09T23:33:24.041Z,76.60
2023-05-09T23:35:52.335Z,76.54
2023-05-09T23:38:20.387Z,76.50
2023-05-09T23:40:48.457Z,76.54
2023-05-09T23:43:16.659Z,76.48
2023-05-09T23:45:44.857Z,76.53
2023-05-09T23:48:13.146Z,76.50
2023-05-09T23:50:41.691Z,76.44
2023-05-09T23:53:09.836Z,76.43
2023-05-09T23:55:38.082Z,76.45
2023-05-09T23:58:06.191Z,76.46
